Time;durP1;ratioP1;P1;durP2;ratioP2;P2;SDS_P1;SDS_P2;PMS_P1;PMS_P2;Temp;Humidity;BMP_temperature;BMP_pressure;BME280_temperature;BME280_humidity;BME280_pressure;Samples;Min_cycle;Max_cycle;Signal;HPM_P1;HPM_P2
2023/06/15 00:03:32;;;;;;;3.40;2.50;;;;;16.60;101266.00;;;;10236672;28;20223;-76
2023/06/15 00:08:34;;;;;;;10.37;2.90;;;;;16.60;101261.00;;;;10235520;28;20209;-75
2023/06/15 00:13:37;;;;;;;6.07;2.87;;;;;16.50;101274.00;;;;10243029;28;20209;-76
2023/06/15 00:18:40;;;;;;;3.57;2.63;;;;;16.40;101265.00;;;;10237920;28;20225;-80
2023/06/15 00:23:45;;;;;;;3.43;2.70;;;;;16.30;101259.00;;;;10200148;28;20741;-74
2023/06/15 00:28:47;;;;;;;4.13;2.60;;;;;16.20;101260.00;;;;10237450;28;20194;-78
2023/06/15 00:33:52;;;;;;;9.33;3.30;;;;;16.10;101272.00;;;;10226607;28;20676;-74
2023/06/15 00:38:54;;;;;;;3.17;2.73;;;;;16.00;101271.00;;;;10232367;28;20223;-75
2023/06/15 00:43:56;;;;;;;9.03;3.27;;;;;15.90;101270.00;;;;10226994;28;20257;-80
2023/06/15 00:48:59;;;;;;;5.13;2.97;;;;;15.70;101275.00;;;;10229908;28;20735;-80
2023/06/15 00:54:02;;;;;;;5.00;2.70;;;;;15.60;101276.00;;;;10236384;28;20267;-74
2023/06/15 00:59:05;;;;;;;3.33;2.60;;;;;15.60;101282.00;;;;10221142;28;20258;-76
2023/06/15 01:04:07;;;;;;;6.10;3.30;;;;;15.50;101275.00;;;;10236958;28;20228;-74
2023/06/15 01:09:11;;;;;;;7.73;3.43;;;;;15.40;101274.00;;;;10230554;28;20213;-74
2023/06/15 01:14:14;;;;;;;3.77;3.00;;;;;15.40;101278.00;;;;10244818;28;20711;-73
2023/06/15 01:19:34;;;;;;;6.40;3.27;;;;;15.30;101269.00;;;;10233658;28;20662;-78
2023/06/15 01:24:38;;;;;;;4.30;2.93;;;;;15.20;101268.00;;;;10234379;28;20213;-74
2023/06/15 01:29:41;;;;;;;5.47;3.40;;;;;15.10;101271.00;;;;10240144;28;20285;-76
2023/06/15 01:34:44;;;;;;;4.23;3.33;;;;;15.10;101271.00;;;;10233016;28;20636;-76
2023/06/15 01:39:46;;;;;;;4.37;3.30;;;;;15.00;101267.00;;;;10235700;28;20821;-75
2023/06/15 01:44:50;;;;;;;6.23;3.70;;;;;14.80;101274.00;;;;10218909;28;20201;-74
2023/06/15 01:49:52;;;;;;;4.30;3.53;;;;;14.70;101270.00;;;;10211410;28;20245;-74
2023/06/15 01:54:56;;;;;;;6.40;3.17;;;;;14.70;101280.00;;;;10240715;28;20197;-74
2023/06/15 01:59:58;;;;;;;5.87;3.50;;;;;14.60;101282.00;;;;10240244;28;20253;-78
2023/06/15 02:05:03;;;;;;;6.63;3.73;;;;;14.40;101283.00;;;;10232368;28;20197;-75
2023/06/15 02:10:06;;;;;;;5.20;3.97;;;;;14.30;101286.00;;;;10233689;28;20205;-74
2023/06/15 02:15:08;;;;;;;3.73;3.43;;;;;14.20;101287.00;;;;10209187;28;20289;-74
2023/06/15 02:20:12;;;;;;;5.47;3.90;;;;;14.10;101277.00;;;;10235464;28;20831;-74
2023/06/15 02:25:14;;;;;;;4.00;3.60;;;;;14.10;101279.00;;;;10238996;28;20626;-76
2023/06/15 02:30:17;;;;;;;5.10;3.90;;;;;14.10;101283.00;;;;10219963;28;20296;-74
2023/06/15 02:35:20;;;;;;;5.70;4.10;;;;;14.10;101283.00;;;;10237439;28;20262;-75
2023/06/15 02:40:22;;;;;;;5.80;4.50;;;;;14.00;101280.00;;;;10221673;28;20268;-73
2023/06/15 02:45:24;;;;;;;4.63;4.23;;;;;13.90;101280.00;;;;10241238;28;20209;-74
2023/06/15 02:50:26;;;;;;;9.50;4.03;;;;;13.80;101282.00;;;;10235614;28;20248;-74
2023/06/15 02:55:41;;;;;;;6.37;4.20;;;;;13.70;101288.00;;;;10232488;28;20298;-79
2023/06/15 03:00:48;;;;;;;7.50;4.60;;;;;13.60;101288.00;;;;10223910;28;20210;-80
2023/06/15 03:06:01;;;;;;;5.80;4.43;;;;;13.50;101282.00;;;;10226072;28;20221;-80
2023/06/15 03:11:08;;;;;;;5.17;4.60;;;;;13.50;101289.00;;;;10239880;28;20198;-80
2023/06/15 03:16:15;;;;;;;6.10;4.50;;;;;13.50;101302.00;;;;10228704;28;20223;-74
2023/06/15 03:21:22;;;;;;;10.23;4.50;;;;;13.50;101303.00;;;;10232713;28;20313;-75
2023/06/15 03:26:27;;;;;;;5.27;4.60;;;;;13.40;101301.00;;;;10225239;28;20316;-75
2023/06/15 03:31:33;;;;;;;5.57;4.70;;;;;13.40;101306.00;;;;10226665;28;20220;-76
2023/06/15 03:36:36;;;;;;;7.67;4.23;;;;;13.40;101310.00;;;;10235610;28;20220;-79
2023/06/15 03:41:39;;;;;;;6.07;4.73;;;;;13.40;101303.00;;;;10239977;28;20308;-80
2023/06/15 03:46:41;;;;;;;5.70;5.20;;;;;13.40;101306.00;;;;10240993;28;20656;-80
2023/06/15 03:51:43;;;;;;;6.30;5.10;;;;;13.50;101313.00;;;;10226545;28;20194;-75
2023/06/15 03:56:46;;;;;;;7.13;4.93;;;;;13.70;101306.00;;;;10231537;28;20651;-75
2023/06/15 04:01:48;;;;;;;5.93;4.73;;;;;14.00;101311.00;;;;10232146;28;20281;-75
2023/06/15 04:06:53;;;;;;;8.47;4.43;;;;;14.30;101316.00;;;;10235553;28;20221;-75
2023/06/15 04:11:55;;;;;;;4.63;4.23;;;;;14.60;101327.00;;;;10238428;28;20849;-79
2023/06/15 04:17:00;;;;;;;5.93;4.30;;;;;14.60;101320.00;;;;10215194;28;20229;-78
2023/06/15 04:22:02;;;;;;;5.47;4.83;;;;;14.50;101327.00;;;;10237637;28;20248;-78
2023/06/15 04:27:06;;;;;;;8.97;4.50;;;;;14.50;101339.00;;;;10221889;28;20220;-76
2023/06/15 04:32:08;;;;;;;6.87;4.50;;;;;14.60;101339.00;;;;10230331;28;20213;-74
2023/06/15 04:37:16;;;;;;;5.97;4.53;;;;;14.80;101347.00;;;;10221980;28;20229;-73
2023/06/15 04:42:21;;;;;;;9.07;5.13;;;;;14.90;101337.00;;;;10213427;28;20236;-73
2023/06/15 04:47:24;;;;;;;5.80;5.20;;;;;15.10;101351.00;;;;10222163;28;20259;-72
2023/06/15 04:52:26;;;;;;;6.87;5.30;;;;;15.40;101348.00;;;;10230625;28;20257;-74
2023/06/15 04:57:29;;;;;;;9.43;5.07;;;;;15.70;101360.00;;;;10217155;28;20284;-74
2023/06/15 05:02:31;;;;;;;5.63;5.13;;;;;16.10;101369.00;;;;10209177;28;20342;-73
2023/06/15 05:07:33;;;;;;;7.07;5.23;;;;;16.50;101378.00;;;;10229888;28;20746;-72
2023/06/15 05:12:36;;;;;;;7.23;5.57;;;;;16.90;101381.00;;;;10217992;28;20201;-73
2023/06/15 05:17:38;;;;;;;8.83;4.80;;;;;17.40;101376.00;;;;10241436;28;20252;-74
2023/06/15 05:22:41;;;;;;;7.33;5.00;;;;;18.00;101387.00;;;;10228353;28;20568;-74
2023/06/15 05:27:43;;;;;;;7.83;5.03;;;;;18.40;101394.00;;;;10248913;28;20237;-78
2023/06/15 05:32:47;;;;;;;9.50;4.57;;;;;18.90;101386.00;;;;10243951;28;20615;-78
2023/06/15 05:37:50;;;;;;;7.10;4.20;;;;;19.60;101391.00;;;;10221766;28;20217;-75
2023/06/15 05:42:54;;;;;;;8.02;4.90;;;;;20.10;101397.00;;;;10237385;28;20194;-74
2023/06/15 05:47:56;;;;;;;9.48;5.18;;;;;20.50;101395.00;;;;10240920;28;20278;-74
2023/06/15 05:52:59;;;;;;;6.93;4.45;;;;;20.90;101401.00;;;;10242903;28;20197;-75
2023/06/15 05:58:01;;;;;;;5.13;4.13;;;;;21.30;101393.00;;;;10231997;28;20247;-79
2023/06/15 06:03:04;;;;;;;8.80;4.68;;;;;21.60;101393.00;;;;10228537;28;20201;-76
2023/06/15 06:08:14;;;;;;;9.13;5.00;;;;;22.00;101394.00;;;;10234184;28;20198;-75
2023/06/15 06:13:16;;;;;;;7.95;4.25;;;;;22.30;101390.00;;;;10239479;28;20221;-78
2023/06/15 06:18:19;;;;;;;4.75;4.20;;;;;22.60;101394.00;;;;10232085;28;20226;-78
2023/06/15 06:23:21;;;;;;;6.30;5.03;;;;;22.90;101397.00;;;;10244373;28;20284;-78
2023/06/15 06:28:23;;;;;;;8.13;4.10;;;;;23.40;101389.00;;;;10217517;28;20206;-80
2023/06/15 06:33:25;;;;;;;6.50;3.95;;;;;23.60;101399.00;;;;10235504;28;20210;-75
2023/06/15 06:38:28;;;;;;;12.18;4.28;;;;;24.00;101400.00;;;;10214950;28;20218;-75
2023/06/15 06:43:30;;;;;;;6.72;4.03;;;;;24.40;101412.00;;;;10244621;28;20313;-81
2023/06/15 06:48:32;;;;;;;4.13;3.70;;;;;24.80;101411.00;;;;10230531;28;20255;-74
2023/06/15 06:53:34;;;;;;;7.47;3.90;;;;;25.10;101410.00;;;;10233682;28;20205;-73
2023/06/15 06:58:36;;;;;;;5.78;3.88;;;;;25.50;101413.00;;;;10229692;28;20312;-79
2023/06/15 07:03:39;;;;;;;7.10;3.95;;;;;25.80;101414.00;;;;10215443;28;20325;-76
2023/06/15 07:08:41;;;;;;;5.60;4.28;;;;;26.20;101414.00;;;;10204549;28;20269;-75
2023/06/15 07:13:43;;;;;;;8.38;3.80;;;;;26.50;101410.00;;;;10219899;28;20206;-74
2023/06/15 07:18:46;;;;;;;7.07;4.03;;;;;26.60;101414.00;;;;10248269;28;20633;-74
2023/06/15 07:23:48;;;;;;;6.05;3.65;;;;;26.90;101409.00;;;;10231639;28;20216;-75
2023/06/15 07:28:55;;;;;;;4.22;3.40;;;;;27.20;101419.00;;;;10237488;28;20209;-73
2023/06/15 07:33:57;;;;;;;5.15;3.20;;;;;27.70;101426.00;;;;10222575;28;20213;-79
2023/06/15 07:38:59;;;;;;;5.53;3.10;;;;;28.10;101426.00;;;;10237170;28;20277;-80
2023/06/15 07:44:01;;;;;;;4.13;3.42;;;;;28.70;101428.00;;;;10244596;28;20190;-78
2023/06/15 07:49:03;;;;;;;2.90;2.60;;;;;29.20;101432.00;;;;10236734;28;20213;-78
2023/06/15 07:54:06;;;;;;;4.45;3.30;;;;;29.30;101426.00;;;;10241543;28;20217;-81
2023/06/15 07:59:07;;;;;;;4.15;2.97;;;;;29.30;101426.00;;;;10238386;28;20296;-80
2023/06/15 08:04:09;;;;;;;2.90;2.60;;;;;29.60;101438.00;;;;10229381;28;20205;-79
2023/06/15 08:09:12;;;;;;;3.88;2.47;;;;;29.90;101426.00;;;;10227822;28;20725;-75
2023/06/15 08:14:14;;;;;;;3.90;2.72;;;;;30.00;101430.00;;;;10230560;28;20201;-75
2023/06/15 08:19:16;;;;;;;4.10;2.70;;;;;30.20;101428.00;;;;10230413;28;20221;-74
2023/06/15 08:24:18;;;;;;;4.20;2.63;;;;;30.40;101428.00;;;;10234157;28;20220;-73
2023/06/15 08:29:21;;;;;;;6.47;3.20;;;;;30.50;101425.00;;;;10229959;28;20209;-74
2023/06/15 08:34:28;;;;;;;5.90;3.25;;;;;30.50;101425.00;;;;10223767;28;20223;-76
2023/06/15 08:39:30;;;;;;;7.35;3.05;;;;;31.00;101425.00;;;;10234363;28;20217;-76
2023/06/15 08:44:37;;;;;;;5.93;3.15;;;;;31.30;101425.00;;;;10231253;28;20212;-73
2023/06/15 08:49:39;;;;;;;3.55;2.80;;;;;31.80;101414.00;;;;10242688;28;20210;-81
2023/06/15 08:54:42;;;;;;;4.93;2.90;;;;;32.20;101416.00;;;;10228155;28;20647;-75
2023/06/15 08:59:45;;;;;;;4.10;2.40;;;;;32.10;101416.00;;;;10224013;28;20331;-76
2023/06/15 09:04:51;;;;;;;3.22;2.55;;;;;32.50;101421.00;;;;10218377;28;20574;-76
2023/06/15 09:10:20;;;;;;;4.78;2.72;;;;;33.00;101418.00;;;;10229320;28;20202;-75
2023/06/15 09:15:26;;;;;;;4.10;2.35;;;;;33.20;101422.00;;;;10232494;28;20652;-77
2023/06/15 09:20:31;;;;;;;6.25;2.45;;;;;33.00;101414.00;;;;10236358;28;20228;-75
2023/06/15 09:25:36;;;;;;;2.70;2.30;;;;;33.10;101418.00;;;;10236274;28;20276;-75
2023/06/15 09:30:40;;;;;;;2.92;2.58;;;;;33.10;101423.00;;;;10235223;28;20218;-81
2023/06/15 09:35:56;;;;;;;4.40;2.20;;;;;33.40;101409.00;;;;10237610;28;20272;-75
2023/06/15 09:41:05;;;;;;;6.25;2.47;;;;;33.60;101414.00;;;;10237212;28;20723;-75
2023/06/15 09:46:20;;;;;;;3.92;2.20;;;;;33.90;101416.00;;;;10239646;28;20209;-80
2023/06/15 09:51:27;;;;;;;3.30;2.10;;;;;34.30;101415.00;;;;10245844;28;20553;-82
2023/06/15 09:56:36;;;;;;;3.60;2.58;;;;;33.90;101415.00;;;;10238947;28;20257;-77
2023/06/15 10:01:39;;;;;;;2.65;2.08;;;;;34.20;101411.00;;;;10234522;28;20198;-82
2023/06/15 10:06:46;;;;;;;4.50;2.58;;;;;33.90;101414.00;;;;10236869;28;20708;-81
2023/06/15 10:11:50;;;;;;;5.30;2.38;;;;;33.80;101402.00;;;;10235734;28;20213;-76
2023/06/15 10:16:59;;;;;;;3.53;2.15;;;;;33.80;101405.00;;;;10225133;28;20202;-79
2023/06/15 10:22:06;;;;;;;3.60;2.38;;;;;34.00;101404.00;;;;10235771;28;20202;-79
2023/06/15 10:27:09;;;;;;;4.47;2.55;;;;;34.00;101411.00;;;;10216227;28;20212;-77
2023/06/15 10:32:43;;;;;;;3.78;1.98;;;;;34.50;101408.00;;;;10224295;28;20218;-77
2023/06/15 10:37:51;;;;;;;3.65;2.08;;;;;34.50;101408.00;;;;10230318;28;20209;-76
2023/06/15 10:42:55;;;;;;;5.10;2.22;;;;;34.90;101411.00;;;;10237818;28;20216;-82
2023/06/15 10:47:59;;;;;;;4.88;2.60;;;;;35.30;101405.00;;;;10245109;28;20248;-79
2023/06/15 10:53:02;;;;;;;5.50;2.60;;;;;35.10;101409.00;;;;10230196;28;20248;-77
2023/06/15 10:58:15;;;;;;;4.18;2.78;;;;;35.20;101403.00;;;;10213911;28;20230;-77
2023/06/15 11:03:25;;;;;;;3.53;2.58;;;;;35.50;101410.00;;;;10224603;28;20755;-79
2023/06/15 11:08:31;;;;;;;5.63;2.58;;;;;35.50;101406.00;;;;10244057;28;20219;-83
2023/06/15 11:13:33;;;;;;;6.15;2.85;;;;;35.70;101405.00;;;;10227662;28;20209;-80
2023/06/15 11:18:36;;;;;;;4.85;2.63;;;;;36.10;101399.00;;;;10229568;28;20209;-78
2023/06/15 11:23:40;;;;;;;6.97;2.80;;;;;36.90;101400.00;;;;10236999;28;20873;-79
2023/06/15 11:28:43;;;;;;;5.40;2.63;;;;;37.00;101396.00;;;;10224240;28;20705;-79
2023/06/15 11:33:45;;;;;;;7.80;2.45;;;;;37.20;101391.00;;;;10226729;28;20201;-77
2023/06/15 11:38:48;;;;;;;3.55;2.72;;;;;37.40;101383.00;;;;10221456;28;20265;-76
2023/06/15 11:43:50;;;;;;;5.20;2.70;;;;;37.20;101384.00;;;;10222691;28;20202;-76
2023/06/15 11:48:56;;;;;;;6.50;2.45;;;;;35.70;101391.00;;;;10227646;28;20871;-73
2023/06/15 11:53:59;;;;;;;6.03;2.83;;;;;35.80;101373.00;;;;10232984;28;20293;-76
2023/06/15 11:59:02;;;;;;;3.92;2.63;;;;;36.70;101388.00;;;;10219224;28;20205;-73
2023/06/15 12:04:10;;;;;;;4.20;2.55;;;;;35.80;101377.00;;;;10228709;28;20209;-75
2023/06/15 12:09:15;;;;;;;4.72;2.40;;;;;36.90;101368.00;;;;10237641;28;20224;-76
2023/06/15 12:14:20;;;;;;;2.85;2.60;;;;;37.70;101371.00;;;;10237374;28;20296;-76
2023/06/15 12:19:22;;;;;;;4.25;2.58;;;;;35.10;101374.00;;;;10230720;28;20708;-76
2023/06/15 12:24:25;;;;;;;4.93;2.50;;;;;32.50;101378.00;;;;10232972;28;20201;-78
2023/06/15 12:29:27;;;;;;;9.35;3.03;;;;;31.40;101380.00;;;;10226155;28;20249;-79
2023/06/15 12:34:29;;;;;;;4.70;2.45;;;;;33.20;101352.00;;;;10224029;28;20233;-80
2023/06/15 12:39:33;;;;;;;3.65;2.75;;;;;35.50;101343.00;;;;10235568;28;20217;-80
2023/06/15 12:44:35;;;;;;;4.65;2.65;;;;;36.90;101347.00;;;;10218197;28;20301;-78
2023/06/15 12:49:38;;;;;;;6.68;3.13;;;;;36.90;101348.00;;;;10233164;28;20224;-75
2023/06/15 12:54:40;;;;;;;4.25;2.63;;;;;36.80;101346.00;;;;10238091;28;20656;-75
2023/06/15 12:59:42;;;;;;;4.18;2.75;;;;;36.20;101347.00;;;;10231255;28;20202;-76
2023/06/15 13:04:44;;;;;;;6.30;3.08;;;;;36.10;101338.00;;;;10233505;28;20236;-76
2023/06/15 13:09:47;;;;;;;4.00;2.95;;;;;37.00;101337.00;;;;10234221;28;20667;-75
2023/06/15 13:14:49;;;;;;;4.65;2.63;;;;;37.30;101331.00;;;;10234366;28;20209;-76
2023/06/15 13:19:51;;;;;;;3.53;2.72;;;;;36.80;101340.00;;;;10236171;28;20205;-78
2023/06/15 13:24:53;;;;;;;3.72;2.70;;;;;36.60;101340.00;;;;10240352;28;20300;-83
2023/06/15 13:29:55;;;;;;;4.35;2.50;;;;;36.50;101343.00;;;;10253427;28;20382;-84
2023/06/15 13:34:57;;;;;;;4.18;2.70;;;;;37.20;101340.00;;;;10242513;28;20557;-76
2023/06/15 13:40:08;;;;;;;2.92;2.65;;;;;36.60;101329.00;;;;10240170;28;20209;-75
2023/06/15 13:45:22;;;;;;;4.70;2.85;;;;;37.00;101326.00;;;;10232759;28;20205;-78
2023/06/15 13:50:24;;;;;;;4.57;2.85;;;;;37.00;101325.00;;;;10235754;28;20256;-77
2023/06/15 13:55:26;;;;;;;4.47;3.05;;;;;37.20;101312.00;;;;10215780;28;20201;-76
2023/06/15 14:00:29;;;;;;;9.02;3.10;;;;;36.20;101331.00;;;;10227885;28;20194;-78
2023/06/15 14:05:33;;;;;;;5.57;2.75;;;;;33.50;101328.00;;;;10226424;28;20816;-77
2023/06/15 14:10:36;;;;;;;6.82;2.78;;;;;33.40;101325.00;;;;10235798;28;20692;-78
2023/06/15 14:15:38;;;;;;;6.78;2.47;;;;;34.00;101317.00;;;;10240836;28;20206;-77
2023/06/15 14:20:39;;;;;;;4.20;2.60;;;;;34.40;101316.00;;;;10227533;28;20268;-79
2023/06/15 14:25:43;;;;;;;4.60;2.95;;;;;34.80;101310.00;;;;10238399;28;20583;-77
2023/06/15 14:30:45;;;;;;;6.22;2.88;;;;;35.50;101313.00;;;;10243577;28;20237;-78
2023/06/15 14:35:47;;;;;;;4.25;2.70;;;;;36.00;101307.00;;;;10243173;28;20222;-74
2023/06/15 14:40:49;;;;;;;4.32;2.75;;;;;36.50;101306.00;;;;10247415;28;20190;-82
2023/06/15 14:45:52;;;;;;;5.55;2.60;;;;;36.90;101304.00;;;;10263973;28;20241;-84
2023/06/15 14:50:54;;;;;;;6.15;2.80;;;;;36.90;101306.00;;;;10255051;28;20228;-83
2023/06/15 14:55:56;;;;;;;9.88;2.83;;;;;35.80;101297.00;;;;10249500;28;20221;-85
2023/06/15 15:00:58;;;;;;;4.80;3.03;;;;;36.90;101292.00;;;;10243958;28;20194;-83
2023/06/15 15:06:00;;;;;;;4.50;2.83;;;;;37.50;101285.00;;;;10245087;28;20229;-75
2023/06/15 15:11:02;;;;;;;3.22;2.63;;;;;38.10;101280.00;;;;10237311;28;20296;-77
2023/06/15 15:16:07;;;;;;;5.28;3.10;;;;;39.40;101272.00;;;;10236770;28;20879;-74
2023/06/15 15:21:10;;;;;;;7.50;3.10;;;;;40.30;101273.00;;;;10240844;28;20296;-75
2023/06/15 15:26:12;;;;;;;4.90;2.88;;;;;40.70;101259.00;;;;10237166;28;20607;-75
2023/06/15 15:31:15;;;;;;;6.03;2.70;;;;;40.40;101265.00;;;;10223487;28;20225;-75
2023/06/15 15:36:20;;;;;;;4.93;3.10;;;;;36.70;101285.00;;;;10235133;28;20205;-75
2023/06/15 15:41:24;;;;;;;17.48;4.03;;;;;33.00;101278.00;;;;10236968;28;20237;-76
2023/06/15 15:46:26;;;;;;;3.88;2.55;;;;;32.20;101272.00;;;;10237444;28;20557;-75
2023/06/15 15:51:28;;;;;;;6.30;3.10;;;;;32.20;101264.00;;;;10235748;28;20228;-76
2023/06/15 15:56:30;;;;;;;4.22;3.40;;;;;31.80;101260.00;;;;10239642;28;20213;-78
2023/06/15 16:01:32;;;;;;;3.45;2.78;;;;;31.10;101256.00;;;;10234741;28;20214;-83
2023/06/15 16:06:35;;;;;;;5.35;3.03;;;;;31.00;101254.00;;;;10247599;28;20221;-77
2023/06/15 16:11:38;;;;;;;7.22;5.38;;;;;30.80;101249.00;;;;10225819;28;20225;-76
2023/06/15 16:16:40;;;;;;;5.47;3.92;;;;;30.60;101255.00;;;;10230044;28;20229;-75
2023/06/15 16:21:42;;;;;;;6.47;4.07;;;;;30.50;101258.00;;;;10237491;28;20203;-74
2023/06/15 16:26:45;;;;;;;5.63;2.83;;;;;30.20;101252.00;;;;10244561;28;20229;-76
2023/06/15 16:31:47;;;;;;;4.07;3.38;;;;;30.00;101256.00;;;;10257978;28;20241;-75
2023/06/15 16:36:49;;;;;;;3.50;3.05;;;;;29.90;101243.00;;;;10248754;28;20205;-74
2023/06/15 16:41:51;;;;;;;5.07;3.72;;;;;30.10;101241.00;;;;10240440;28;20564;-77
2023/06/15 16:46:53;;;;;;;3.92;2.90;;;;;30.50;101235.00;;;;10242075;28;20223;-76
2023/06/15 16:51:55;;;;;;;5.70;3.45;;;;;30.80;101232.00;;;;10237752;28;20506;-76
2023/06/15 16:56:57;;;;;;;4.40;3.13;;;;;30.50;101234.00;;;;10239825;28;20288;-82
2023/06/15 17:02:00;;;;;;;5.13;3.45;;;;;30.40;101247.00;;;;10272349;28;20226;-77
2023/06/15 17:07:03;;;;;;;5.88;3.03;;;;;30.40;101256.00;;;;10236581;28;20627;-77
2023/06/15 17:12:05;;;;;;;6.53;3.90;;;;;30.50;101259.00;;;;10234883;28;20272;-76
2023/06/15 17:17:08;;;;;;;6.32;3.25;;;;;30.40;101248.00;;;;10244031;28;20294;-75
2023/06/15 17:22:10;;;;;;;5.18;3.78;;;;;30.10;101246.00;;;;10242879;28;20206;-84
2023/06/15 17:27:13;;;;;;;9.77;3.70;;;;;30.10;101246.00;;;;10253566;28;20230;-83
2023/06/15 17:32:15;;;;;;;3.92;3.35;;;;;30.00;101256.00;;;;10275133;28;20226;-82
2023/06/15 17:37:18;;;;;;;9.02;3.85;;;;;29.80;101251.00;;;;10258865;28;20673;-84
2023/06/15 17:42:20;;;;;;;8.65;3.67;;;;;29.50;101254.00;;;;10254195;28;20253;-74
2023/06/15 17:47:23;;;;;;;4.88;3.30;;;;;29.00;101243.00;;;;10247323;28;20219;-75
2023/06/15 17:52:25;;;;;;;5.60;3.60;;;;;29.00;101254.00;;;;10243753;28;20222;-76
2023/06/15 17:57:28;;;;;;;9.45;4.13;;;;;28.90;101257.00;;;;10246920;28;20210;-74
2023/06/15 18:02:30;;;;;;;5.75;3.60;;;;;28.60;101259.00;;;;10252576;28;20213;-82
2023/06/15 18:07:34;;;;;;;9.82;3.90;;;;;28.30;101260.00;;;;10249178;28;20819;-76
2023/06/15 18:12:36;;;;;;;7.32;3.80;;;;;28.10;101254.00;;;;10244260;28;20283;-75
2023/06/15 18:17:38;;;;;;;9.95;3.80;;;;;27.80;101259.00;;;;10236604;28;20201;-75
2023/06/15 18:22:41;;;;;;;6.30;3.85;;;;;27.50;101261.00;;;;10230583;28;20699;-75
2023/06/15 18:27:43;;;;;;;6.45;3.38;;;;;27.20;101274.00;;;;10233260;28;20900;-79
2023/06/15 18:32:45;;;;;;;6.45;3.90;;;;;27.00;101263.00;;;;10232945;28;20240;-74
2023/06/15 18:37:47;;;;;;;9.77;4.38;;;;;26.80;101273.00;;;;10227905;28;20208;-77
2023/06/15 18:42:49;;;;;;;6.40;3.97;;;;;26.60;101263.00;;;;10231877;28;20325;-75
2023/06/15 18:47:51;;;;;;;7.40;3.80;;;;;26.40;101271.00;;;;10223858;28;20657;-81
2023/06/15 18:52:54;;;;;;;7.07;3.80;;;;;26.30;101271.00;;;;10243518;28;20228;-85
2023/06/15 18:57:56;;;;;;;7.10;3.85;;;;;26.10;101267.00;;;;10237429;28;20221;-77
2023/06/15 19:02:58;;;;;;;8.23;3.83;;;;;25.90;101279.00;;;;10233704;28;20217;-75
2023/06/15 19:08:00;;;;;;;6.97;3.75;;;;;25.70;101282.00;;;;10234042;28;20201;-76
2023/06/15 19:13:02;;;;;;;5.50;3.65;;;;;25.50;101283.00;;;;10240152;28;20247;-85
2023/06/15 19:18:04;;;;;;;7.00;4.00;;;;;25.40;101287.00;;;;10234689;28;20201;-75
2023/06/15 19:23:07;;;;;;;3.58;3.20;;;;;25.10;101299.00;;;;10234240;28;20707;-76
2023/06/15 19:28:09;;;;;;;7.75;3.45;;;;;24.90;101300.00;;;;10236893;28;20209;-77
2023/06/15 19:33:11;;;;;;;5.97;3.95;;;;;24.70;101307.00;;;;10227222;28;20253;-77
2023/06/15 19:38:13;;;;;;;6.10;3.35;;;;;24.50;101309.00;;;;10235565;28;20293;-78
2023/06/15 19:43:15;;;;;;;5.43;3.35;;;;;24.20;101311.00;;;;10232392;28;20756;-74
2023/06/15 19:48:18;;;;;;;6.43;2.95;;;;;23.90;101313.00;;;;10232920;28;20228;-78
2023/06/15 19:53:19;;;;;;;6.70;3.08;;;;;23.70;101320.00;;;;10234678;28;20309;-77
2023/06/15 19:58:22;;;;;;;7.63;3.50;;;;;23.50;101334.00;;;;10242719;28;20225;-78
2023/06/15 20:03:26;;;;;;;7.47;2.88;;;;;23.30;101333.00;;;;10245712;28;20194;-82
2023/06/15 20:08:33;;;;;;;4.65;2.97;;;;;23.10;101336.00;;;;10244781;28;20202;-85
2023/06/15 20:13:36;;;;;;;8.15;3.05;;;;;22.90;101343.00;;;;10235538;28;20218;-74
2023/06/15 20:18:44;;;;;;;5.18;2.85;;;;;22.80;101357.00;;;;10236793;28;20612;-75
2023/06/15 20:23:46;;;;;;;3.85;2.85;;;;;22.60;101350.00;;;;10240089;28;20196;-74
2023/06/15 20:28:48;;;;;;;4.45;2.92;;;;;22.40;101352.00;;;;10243277;28;20865;-74
2023/06/15 20:33:50;;;;;;;8.40;2.90;;;;;22.30;101361.00;;;;10224391;28;20222;-74
2023/06/15 20:38:52;;;;;;;5.72;3.25;;;;;22.20;101356.00;;;;10235780;28;20210;-77
2023/06/15 20:43:55;;;;;;;6.38;3.15;;;;;22.10;101361.00;;;;10231819;28;20206;-77
2023/06/15 20:48:57;;;;;;;6.78;3.03;;;;;22.00;101363.00;;;;10240714;28;20197;-77
2023/06/15 20:53:59;;;;;;;4.82;3.20;;;;;21.90;101368.00;;;;10234982;28;20226;-78
2023/06/15 20:59:01;;;;;;;6.13;2.78;;;;;21.70;101368.00;;;;10238563;28;20281;-78
2023/06/15 21:04:03;;;;;;;6.40;3.10;;;;;21.60;101364.00;;;;10225976;28;20225;-74
2023/06/15 21:09:05;;;;;;;5.53;2.85;;;;;21.60;101369.00;;;;10231087;28;20261;-73
2023/06/15 21:14:08;;;;;;;7.13;2.85;;;;;21.50;101368.00;;;;10231774;28;20209;-73
2023/06/15 21:19:10;;;;;;;4.80;2.90;;;;;21.40;101364.00;;;;10239082;28;20216;-74
2023/06/15 21:24:12;;;;;;;3.72;3.35;;;;;21.30;101362.00;;;;10237975;28;20583;-75
2023/06/15 21:29:14;;;;;;;7.78;2.90;;;;;21.20;101366.00;;;;10224970;28;20418;-74
2023/06/15 21:34:16;;;;;;;5.32;3.00;;;;;21.10;101359.00;;;;10244033;28;20233;-81
2023/06/15 21:39:18;;;;;;;3.50;3.05;;;;;21.00;101360.00;;;;10240187;28;20736;-76
2023/06/15 21:44:20;;;;;;;3.97;3.38;;;;;20.90;101368.00;;;;10242657;28;20301;-76
2023/06/15 21:49:22;;;;;;;4.25;3.03;;;;;20.80;101361.00;;;;10232820;28;20206;-74
2023/06/15 21:54:24;;;;;;;3.33;3.03;;;;;20.70;101368.00;;;;10242554;28;20284;-75
2023/06/15 21:59:26;;;;;;;4.32;3.13;;;;;20.60;101377.00;;;;10238963;28;20217;-77
2023/06/15 22:04:28;;;;;;;8.07;3.15;;;;;20.50;101373.00;;;;10240383;28;20720;-74
2023/06/15 22:09:33;;;;;;;7.45;3.30;;;;;20.40;101380.00;;;;10240338;28;20217;-76
2023/06/15 22:14:35;;;;;;;4.95;2.90;;;;;20.20;101372.00;;;;10207178;29;20201;-74
2023/06/15 22:19:37;;;;;;;4.53;2.78;;;;;20.10;101375.00;;;;10232532;28;20436;-76
2023/06/15 22:24:40;;;;;;;6.65;3.17;;;;;20.00;101380.00;;;;10248847;28;20873;-76
2023/06/15 22:29:43;;;;;;;6.80;3.33;;;;;19.80;101377.00;;;;10241945;28;20215;-75
2023/06/15 22:34:46;;;;;;;5.55;2.83;;;;;19.70;101376.00;;;;10241912;28;20281;-76
2023/06/15 22:39:48;;;;;;;5.68;3.15;;;;;19.50;101376.00;;;;10237693;28;20271;-74
2023/06/15 22:44:50;;;;;;;5.13;3.03;;;;;19.30;101381.00;;;;10210098;28;20240;-74
2023/06/15 22:49:52;;;;;;;4.50;3.28;;;;;19.10;101371.00;;;;10243498;28;20214;-78
2023/06/15 22:54:55;;;;;;;8.45;3.55;;;;;19.00;101368.00;;;;10246104;28;20198;-76
2023/06/15 22:59:57;;;;;;;6.10;3.33;;;;;18.80;101377.00;;;;10239162;28;20219;-77
2023/06/15 23:04:59;;;;;;;4.95;3.00;;;;;18.70;101370.00;;;;10245610;28;20428;-76
2023/06/15 23:10:01;;;;;;;4.78;3.30;;;;;18.60;101371.00;;;;10235020;28;20232;-74
2023/06/15 23:15:03;;;;;;;8.40;3.20;;;;;18.50;101384.00;;;;10233866;28;20308;-75
2023/06/15 23:20:06;;;;;;;9.70;3.50;;;;;18.40;101376.00;;;;10224783;28;20314;-74
2023/06/15 23:25:08;;;;;;;8.30;3.53;;;;;18.30;101364.00;;;;10236035;28;20205;-73
2023/06/15 23:30:11;;;;;;;4.88;3.30;;;;;18.30;101366.00;;;;10247138;28;20959;-74
2023/06/15 23:35:13;;;;;;;4.68;3.13;;;;;18.20;101355.00;;;;10233356;28;20201;-82
2023/06/15 23:40:15;;;;;;;6.47;3.13;;;;;18.10;101361.00;;;;10235295;28;20886;-76
2023/06/15 23:45:18;;;;;;;4.13;3.33;;;;;18.00;101351.00;;;;10217087;29;20206;-74
2023/06/15 23:50:20;;;;;;;5.43;4.03;;;;;17.80;101345.00;;;;10235435;28;20202;-73
2023/06/15 23:55:22;;;;;;;5.65;3.72;;;;;17.70;101342.00;;;;10233615;28;20189;-74
